Time;durP1;ratioP1;P1;durP2;ratioP2;P2;SDS_P1;SDS_P2;PMS_P1;PMS_P2;Temp;Humidity;BMP_temperature;BMP_pressure;BME280_temperature;BME280_humidity;BME280_pressure;Samples;Min_cycle;Max_cycle;Signal;HPM_P1;HPM_P2
2022/11/07 00:02:14;;;;;;;7.17;3.57;;;12.00;99.90;;;;;;4996596;28;20564;-69
2022/11/07 00:04:40;;;;;;;8.93;4.07;;;12.00;99.90;;;;;;4979278;28;20205;-69
2022/11/07 00:07:06;;;;;;;6.07;3.70;;;12.00;99.90;;;;;;4996788;28;20589;-69
2022/11/07 00:09:31;;;;;;;10.13;3.73;;;12.00;99.90;;;;;;4996682;28;20164;-69
2022/11/07 00:11:57;;;;;;;7.17;3.70;;;12.00;99.90;;;;;;4996268;28;20175;-69
2022/11/07 00:14:23;;;;;;;10.40;3.97;;;12.00;99.90;;;;;;4995123;28;20183;-69
2022/11/07 00:16:49;;;;;;;5.97;3.67;;;12.00;99.90;;;;;;4996621;28;20517;-69
2022/11/07 00:19:18;;;;;;;5.83;3.80;;;12.00;99.90;;;;;;4996433;28;20175;-69
2022/11/07 00:21:44;;;;;;;10.47;4.03;;;11.90;99.90;;;;;;4996189;28;20276;-69
2022/11/07 00:24:10;;;;;;;8.40;3.97;;;12.00;99.90;;;;;;4996399;28;20175;-68
2022/11/07 00:26:36;;;;;;;10.87;4.00;;;12.00;99.90;;;;;;4996059;28;20178;-69
2022/11/07 00:29:03;;;;;;;9.13;3.77;;;11.90;99.90;;;;;;4996449;28;20172;-69
2022/11/07 00:31:29;;;;;;;10.50;4.17;;;11.90;99.90;;;;;;4994688;28;20202;-69
2022/11/07 00:33:55;;;;;;;8.10;3.57;;;11.90;99.90;;;;;;4996194;28;20464;-68
2022/11/07 00:36:26;;;;;;;8.27;3.67;;;11.90;99.90;;;;;;4995958;28;20178;-68
2022/11/07 00:38:52;;;;;;;10.13;4.03;;;12.00;99.90;;;;;;4996306;28;20258;-68
2022/11/07 00:41:19;;;;;;;10.30;4.40;;;11.90;99.90;;;;;;4995713;28;20203;-68
2022/11/07 00:43:45;;;;;;;8.80;4.37;;;12.00;99.90;;;;;;4996042;28;20203;-69
2022/11/07 00:46:12;;;;;;;9.20;4.27;;;11.90;99.90;;;;;;4996290;28;20225;-69
2022/11/07 00:48:38;;;;;;;9.23;4.40;;;12.00;99.90;;;;;;4995985;28;20203;-68
2022/11/07 00:51:09;;;;;;;8.97;4.10;;;12.00;99.90;;;;;;4994501;28;20555;-69
2022/11/07 00:53:35;;;;;;;9.23;3.47;;;12.10;99.90;;;;;;4995866;28;20172;-68
2022/11/07 00:56:02;;;;;;;10.47;4.07;;;12.10;99.90;;;;;;4995566;28;20225;-68
2022/11/07 00:58:28;;;;;;;16.93;4.13;;;12.10;99.90;;;;;;4995866;28;20172;-69
2022/11/07 01:00:54;;;;;;;10.20;4.10;;;12.20;99.90;;;;;;4995655;28;20650;-69
2022/11/07 01:06:04;;;;;;;13.17;3.80;;;12.20;99.90;;;;;;4995978;28;20186;-69
2022/11/07 01:08:30;;;;;;;8.07;3.47;;;12.20;99.90;;;;;;4995634;28;20203;-68
2022/11/07 01:10:57;;;;;;;12.03;3.73;;;12.20;99.90;;;;;;4995370;28;20265;-69
2022/11/07 01:13:24;;;;;;;8.30;3.10;;;12.40;99.90;;;;;;4995192;28;20191;-68
2022/11/07 01:15:50;;;;;;;10.20;3.50;;;12.40;99.90;;;;;;4995489;28;20189;-69
2022/11/07 01:18:16;;;;;;;9.33;3.57;;;12.40;99.90;;;;;;4995483;28;20164;-68
2022/11/07 01:20:42;;;;;;;11.07;3.07;;;12.50;99.90;;;;;;4995215;28;20226;-69
2022/11/07 01:23:08;;;;;;;11.10;3.33;;;12.50;99.90;;;;;;4995221;28;20214;-68
2022/11/07 01:25:36;;;;;;;10.17;3.60;;;12.50;99.90;;;;;;4994745;28;20194;-68
2022/11/07 01:28:03;;;;;;;11.90;3.53;;;12.60;99.90;;;;;;4995325;28;20262;-68
2022/11/07 01:30:28;;;;;;;14.70;3.60;;;12.60;99.90;;;;;;4995157;28;20176;-68
2022/11/07 01:32:54;;;;;;;10.30;3.07;;;12.60;99.90;;;;;;4994667;28;20230;-68
2022/11/07 01:35:19;;;;;;;12.87;3.17;;;12.60;99.90;;;;;;4995166;28;20178;-68
2022/11/07 01:37:45;;;;;;;8.60;3.20;;;12.70;99.90;;;;;;4994994;28;20233;-68
2022/11/07 01:40:11;;;;;;;18.10;3.77;;;12.70;99.90;;;;;;4994771;28;20547;-68
2022/11/07 01:42:36;;;;;;;13.10;3.13;;;12.70;99.90;;;;;;4994925;28;20563;-68
2022/11/07 01:45:02;;;;;;;8.87;2.97;;;12.60;99.90;;;;;;4994669;28;20176;-68
2022/11/07 01:47:31;;;;;;;11.30;3.23;;;12.60;99.90;;;;;;4994985;28;20178;-68
2022/11/07 01:49:58;;;;;;;9.53;3.47;;;12.60;99.90;;;;;;4994604;28;20329;-69
2022/11/07 01:52:32;;;;;;;10.83;3.30;;;12.60;99.90;;;;;;4993485;28;20197;-69
2022/11/07 01:55:11;;;;;;;14.63;3.60;;;12.70;99.90;;;;;;4994319;28;20301;-68
2022/11/07 01:57:40;;;;;;;11.83;3.53;;;12.60;99.90;;;;;;4994667;28;20167;-68
2022/11/07 02:00:09;;;;;;;11.77;3.03;;;12.60;99.90;;;;;;4994579;28;20540;-69
2022/11/07 02:02:36;;;;;;;8.93;3.10;;;12.60;99.90;;;;;;4994495;28;20218;-69
2022/11/07 02:05:04;;;;;;;10.87;3.23;;;12.70;99.90;;;;;;4994562;28;20179;-69
2022/11/07 02:07:30;;;;;;;14.47;3.60;;;12.60;99.90;;;;;;4994566;28;20181;-69
2022/11/07 02:09:56;;;;;;;10.93;3.57;;;12.60;99.90;;;;;;4992791;28;20691;-67
2022/11/07 02:12:24;;;;;;;13.67;3.17;;;12.60;99.90;;;;;;4994453;28;20259;-68
2022/11/07 02:14:50;;;;;;;13.90;2.97;;;12.60;99.90;;;;;;4994321;28;20282;-68
2022/11/07 02:17:16;;;;;;;12.80;3.07;;;12.60;99.90;;;;;;4994278;28;20607;-68
2022/11/07 02:19:43;;;;;;;10.13;2.97;;;12.60;99.90;;;;;;4992989;28;20175;-68
2022/11/07 02:22:37;;;;;;;11.07;2.70;;;12.60;99.90;;;;;;4994111;28;20213;-67
2022/11/07 02:25:06;;;;;;;11.73;3.27;;;12.60;99.90;;;;;;4993337;28;20183;-68
2022/11/07 02:27:33;;;;;;;10.20;3.23;;;12.60;99.90;;;;;;4994116;28;20230;-68
2022/11/07 02:30:09;;;;;;;14.07;2.83;;;12.70;99.90;;;;;;4994174;28;20175;-68
2022/11/07 02:32:35;;;;;;;14.63;3.47;;;12.70;99.90;;;;;;4992753;28;20342;-68
2022/11/07 02:35:05;;;;;;;11.33;2.97;;;12.70;99.90;;;;;;4993947;28;20203;-68
2022/11/07 02:37:34;;;;;;;10.97;3.43;;;12.70;99.90;;;;;;4993161;28;20182;-68
2022/11/07 02:40:03;;;;;;;14.20;2.73;;;12.70;99.90;;;;;;4994203;28;20179;-68
2022/11/07 02:42:42;;;;;;;16.00;3.40;;;12.70;99.90;;;;;;4992659;28;20215;-68
2022/11/07 02:45:15;;;;;;;12.53;3.40;;;12.70;99.90;;;;;;4994058;28;20179;-68
2022/11/07 02:47:40;;;;;;;11.70;3.10;;;12.70;99.90;;;;;;4994120;28;20179;-68
2022/11/07 02:50:08;;;;;;;9.67;2.57;;;12.70;99.90;;;;;;4993836;28;20217;-68
2022/11/07 02:52:34;;;;;;;9.93;3.10;;;12.80;99.90;;;;;;4993626;28;20179;-67
2022/11/07 02:55:00;;;;;;;12.30;3.60;;;12.70;99.90;;;;;;4993852;28;20179;-68
2022/11/07 02:57:26;;;;;;;14.93;3.80;;;12.70;99.90;;;;;;4993795;28;20544;-68
2022/11/07 02:59:51;;;;;;;13.20;3.53;;;12.70;99.90;;;;;;4992500;28;20630;-68
2022/11/07 03:02:17;;;;;;;9.53;3.03;;;12.70;99.90;;;;;;4993516;28;20214;-68
2022/11/07 03:04:42;;;;;;;10.93;3.27;;;12.70;99.90;;;;;;4993904;28;20338;-68
2022/11/07 03:07:08;;;;;;;13.10;3.90;;;12.60;99.90;;;;;;4993407;28;20204;-68
2022/11/07 03:09:34;;;;;;;14.73;3.67;;;12.70;99.90;;;;;;4993750;28;20231;-67
2022/11/07 03:11:59;;;;;;;10.20;3.20;;;12.70;99.90;;;;;;4993637;28;20179;-67
2022/11/07 03:14:25;;;;;;;14.20;3.33;;;12.70;99.90;;;;;;4993451;28;20199;-67
2022/11/07 03:16:50;;;;;;;10.50;3.17;;;12.80;99.90;;;;;;4993610;28;20183;-68
2022/11/07 03:19:16;;;;;;;13.57;3.77;;;12.70;99.90;;;;;;4993673;28;20246;-68
2022/11/07 03:21:41;;;;;;;11.73;3.43;;;12.60;99.90;;;;;;4993207;28;20211;-67
2022/11/07 03:24:07;;;;;;;12.33;3.83;;;12.60;99.90;;;;;;4993551;28;20620;-68
2022/11/07 03:26:32;;;;;;;14.43;3.93;;;12.70;99.90;;;;;;4993564;28;20187;-67
2022/11/07 03:28:58;;;;;;;14.17;4.30;;;12.80;99.90;;;;;;4993494;28;20176;-67
2022/11/07 03:31:24;;;;;;;16.67;4.60;;;12.80;99.90;;;;;;4991871;28;20642;-67
2022/11/07 03:33:49;;;;;;;10.73;4.10;;;12.80;99.90;;;;;;4992127;28;20269;-68
2022/11/07 03:36:15;;;;;;;12.50;4.17;;;12.80;99.90;;;;;;4993177;28;20242;-69
2022/11/07 03:38:40;;;;;;;8.70;3.40;;;12.80;99.90;;;;;;4993397;28;20178;-68
2022/11/07 03:41:06;;;;;;;18.23;4.00;;;12.80;99.90;;;;;;4993227;28;20651;-68
2022/11/07 03:43:32;;;;;;;14.53;3.50;;;12.80;99.90;;;;;;4993229;28;20206;-68
2022/11/07 03:45:57;;;;;;;14.03;4.00;;;12.80;99.90;;;;;;4993399;28;20179;-67
2022/11/07 03:48:23;;;;;;;13.47;3.77;;;12.80;99.90;;;;;;4995265;28;20171;-68
2022/11/07 03:50:48;;;;;;;11.50;3.30;;;12.90;99.90;;;;;;4996613;28;20178;-69
2022/11/07 03:53:14;;;;;;;15.17;3.70;;;12.90;99.90;;;;;;4996867;28;20171;-69
2022/11/07 03:55:41;;;;;;;10.90;3.50;;;12.90;99.90;;;;;;4996850;28;20674;-68
2022/11/07 03:58:07;;;;;;;7.67;3.13;;;12.90;99.90;;;;;;4996647;28;20171;-67
2022/11/07 04:00:33;;;;;;;14.17;3.50;;;12.90;99.90;;;;;;4996734;28;20646;-67
2022/11/07 04:02:58;;;;;;;10.67;3.30;;;12.90;99.90;;;;;;4996855;28;20265;-68
2022/11/07 04:05:24;;;;;;;12.30;3.60;;;12.90;99.90;;;;;;4996381;28;20255;-68
2022/11/07 04:07:49;;;;;;;15.97;3.53;;;12.90;99.90;;;;;;4996822;28;20207;-68
2022/11/07 04:10:15;;;;;;;9.00;2.90;;;12.90;99.90;;;;;;4996785;28;20168;-68
2022/11/07 04:18:10;;;;;;;14.10;4.10;;;13.00;99.90;;;;;;4996263;28;20197;-68
2022/11/07 04:20:36;;;;;;;12.37;3.57;;;12.90;99.90;;;;;;4995995;28;20659;-67
2022/11/07 04:23:01;;;;;;;13.00;3.40;;;12.90;99.90;;;;;;4995918;28;20207;-67
2022/11/07 04:28:11;;;;;;;14.77;3.63;;;13.00;99.90;;;;;;4996387;28;20176;-68
2022/11/07 04:30:36;;;;;;;10.67;3.57;;;12.90;99.90;;;;;;4996173;28;20179;-68
2022/11/07 04:33:02;;;;;;;12.57;3.67;;;12.90;99.90;;;;;;4995401;28;20254;-68
2022/11/07 04:35:31;;;;;;;13.87;3.63;;;13.00;99.90;;;;;;4996210;28;20179;-67
2022/11/07 04:37:57;;;;;;;13.13;3.73;;;13.00;99.90;;;;;;4995910;28;20176;-68
2022/11/07 04:40:23;;;;;;;11.60;3.27;;;13.10;99.90;;;;;;4995753;28;20168;-68
2022/11/07 04:42:48;;;;;;;13.13;3.73;;;13.10;99.90;;;;;;4995740;28;20211;-68
2022/11/07 04:45:15;;;;;;;17.50;4.13;;;13.00;99.90;;;;;;4996133;28;20176;-68
2022/11/07 04:47:41;;;;;;;13.23;3.97;;;13.00;99.90;;;;;;4995273;28;20179;-69
2022/11/07 04:50:10;;;;;;;12.83;3.50;;;13.00;99.90;;;;;;4995725;28;20167;-69
2022/11/07 04:52:36;;;;;;;11.67;3.30;;;13.00;99.90;;;;;;4995364;28;20170;-68
2022/11/07 04:55:02;;;;;;;16.30;3.70;;;13.00;99.90;;;;;;4995548;28;20167;-68
2022/11/07 04:57:27;;;;;;;12.60;3.40;;;13.00;99.90;;;;;;4995267;28;20185;-69
2022/11/07 04:59:53;;;;;;;13.20;3.50;;;13.10;99.90;;;;;;4994729;28;20179;-67
2022/11/07 05:02:22;;;;;;;12.33;3.30;;;13.00;99.90;;;;;;4995214;28;20207;-69
2022/11/07 05:04:48;;;;;;;11.87;3.43;;;13.00;99.90;;;;;;4994111;28;20651;-69
2022/11/07 05:07:13;;;;;;;15.10;3.47;;;13.10;99.90;;;;;;4995201;28;20179;-69
2022/11/07 05:09:39;;;;;;;11.40;3.33;;;13.00;99.90;;;;;;4995223;28;20171;-68
2022/11/07 05:12:05;;;;;;;14.23;3.80;;;13.00;99.90;;;;;;4994999;28;20171;-68
2022/11/07 05:14:30;;;;;;;13.27;3.83;;;12.90;99.90;;;;;;4994842;28;20191;-68
2022/11/07 05:16:56;;;;;;;13.60;3.70;;;13.00;99.90;;;;;;4994777;28;20168;-68
2022/11/07 05:19:22;;;;;;;16.87;3.53;;;12.90;99.90;;;;;;4994918;28;20551;-68
2022/11/07 05:23:10;;;;;;;12.83;3.77;;;12.90;99.90;;;;;;4994975;28;20203;-68
2022/11/07 05:24:33;;;;;;;12.57;3.63;;;12.90;99.90;;;;;;4994615;28;20186;-68
2022/11/07 05:26:59;;;;;;;10.47;3.93;;;12.80;99.90;;;;;;4994799;28;20183;-68
2022/11/07 05:29:24;;;;;;;15.43;3.90;;;12.70;99.90;;;;;;4994881;28;20247;-67
2022/11/07 05:31:50;;;;;;;10.57;3.50;;;12.80;99.90;;;;;;4994114;28;20353;-68
2022/11/07 05:34:15;;;;;;;10.03;3.37;;;12.70;99.90;;;;;;4994468;28;20171;-67
2022/11/07 05:36:41;;;;;;;9.60;3.40;;;12.70;99.90;;;;;;4994561;28;20262;-67
2022/11/07 05:39:07;;;;;;;10.33;3.57;;;12.70;99.90;;;;;;4994217;28;20655;-67
2022/11/07 05:41:34;;;;;;;9.43;3.17;;;12.70;99.90;;;;;;4993853;28;20711;-68
2022/11/07 05:44:00;;;;;;;12.80;3.30;;;12.70;99.90;;;;;;4994569;28;20651;-67
2022/11/07 05:46:26;;;;;;;14.50;3.47;;;12.70;99.90;;;;;;4994192;28;20187;-67
2022/11/07 05:48:51;;;;;;;16.60;3.70;;;12.70;99.90;;;;;;4994114;28;20270;-67
2022/11/07 05:51:17;;;;;;;15.73;3.30;;;12.80;99.90;;;;;;4993660;28;20270;-68
2022/11/07 05:53:42;;;;;;;13.27;3.23;;;12.90;99.90;;;;;;4993777;28;20176;-67
2022/11/07 05:56:08;;;;;;;11.30;3.10;;;12.80;99.90;;;;;;4994082;28;20179;-68
2022/11/07 05:58:33;;;;;;;12.13;3.40;;;12.80;99.90;;;;;;4993623;28;20751;-68
2022/11/07 06:01:01;;;;;;;12.00;3.23;;;12.80;99.90;;;;;;4993368;28;20229;-68
2022/11/07 06:03:26;;;;;;;12.57;3.23;;;12.90;99.90;;;;;;4994080;28;20195;-68
2022/11/07 06:05:52;;;;;;;9.83;3.30;;;12.90;99.90;;;;;;4994168;28;20325;-68
2022/11/07 06:08:17;;;;;;;14.00;3.13;;;12.90;99.90;;;;;;4993020;28;20175;-68
2022/11/07 06:10:43;;;;;;;14.30;2.77;;;12.90;99.90;;;;;;4993505;28;20175;-68
2022/11/07 06:13:15;;;;;;;7.30;2.57;;;12.80;99.90;;;;;;4992677;28;20644;-68
2022/11/07 06:15:42;;;;;;;10.57;3.00;;;12.90;99.90;;;;;;4993020;28;20641;-68
2022/11/07 06:18:13;;;;;;;10.43;2.77;;;12.90;99.90;;;;;;4993286;28;20627;-70
2022/11/07 06:20:39;;;;;;;10.93;3.00;;;12.90;99.90;;;;;;4993107;28;20175;-69
2022/11/07 06:23:05;;;;;;;17.70;3.30;;;12.90;99.90;;;;;;4992505;28;20269;-69
2022/11/07 06:25:31;;;;;;;12.60;2.80;;;12.90;99.90;;;;;;4993102;28;20186;-69
2022/11/07 06:28:02;;;;;;;11.07;2.87;;;12.90;99.90;;;;;;4993324;28;20171;-67
2022/11/07 06:30:28;;;;;;;13.60;3.27;;;13.00;99.90;;;;;;4992122;28;20225;-69
2022/11/07 06:32:54;;;;;;;10.80;3.07;;;13.10;99.90;;;;;;4992639;28;20734;-69
2022/11/07 06:35:20;;;;;;;13.67;3.20;;;13.10;99.90;;;;;;4992836;28;20323;-69
2022/11/07 06:37:45;;;;;;;12.37;2.70;;;13.10;99.90;;;;;;4992323;28;20194;-68
2022/11/07 06:40:11;;;;;;;14.67;3.10;;;13.10;99.90;;;;;;4992412;28;20175;-69
2022/11/07 06:42:37;;;;;;;15.67;3.40;;;13.00;99.90;;;;;;4993018;28;20409;-68
2022/11/07 06:45:03;;;;;;;13.53;3.13;;;13.00;99.90;;;;;;4992450;28;20219;-69
2022/11/07 06:47:29;;;;;;;11.60;3.33;;;13.00;99.90;;;;;;4991558;28;20186;-68
2022/11/07 06:49:54;;;;;;;16.80;3.60;;;13.00;99.90;;;;;;4992387;28;20221;-69
2022/11/07 06:52:20;;;;;;;11.40;3.13;;;12.90;99.90;;;;;;4993285;28;20628;-68
2022/11/07 06:54:46;;;;;;;13.97;3.03;;;13.00;99.90;;;;;;4992484;28;20236;-70
2022/11/07 06:57:11;;;;;;;14.90;3.10;;;13.00;99.90;;;;;;4992274;28;20174;-67
2022/11/07 06:59:37;;;;;;;14.30;3.20;;;13.00;99.90;;;;;;4992219;28;20573;-67
2022/11/07 07:02:03;;;;;;;14.77;3.17;;;13.10;99.90;;;;;;4990808;28;20210;-70
2022/11/07 07:04:28;;;;;;;14.37;3.10;;;13.10;99.90;;;;;;4992288;28;20177;-69
2022/11/07 07:06:54;;;;;;;11.50;2.87;;;13.10;99.90;;;;;;4991956;28;20618;-67
2022/11/07 07:09:19;;;;;;;8.30;2.67;;;13.10;99.90;;;;;;4992942;28;20532;-69
2022/11/07 07:11:45;;;;;;;11.33;2.87;;;13.10;99.90;;;;;;4992396;28;20183;-68
2022/11/07 07:14:11;;;;;;;14.93;3.40;;;13.10;99.90;;;;;;4991995;28;20286;-68
2022/11/07 07:16:37;;;;;;;14.37;3.07;;;13.00;99.90;;;;;;4992075;28;20185;-68
2022/11/07 07:19:03;;;;;;;10.33;2.97;;;13.10;99.90;;;;;;4992248;28;20563;-68
2022/11/07 07:21:29;;;;;;;15.10;2.90;;;13.10;99.90;;;;;;4992122;28;20194;-68
2022/11/07 07:23:55;;;;;;;13.70;2.83;;;13.10;99.90;;;;;;4995103;28;20250;-68
2022/11/07 07:26:21;;;;;;;12.30;3.27;;;13.10;99.90;;;;;;4996247;28;20274;-68
2022/11/07 07:28:47;;;;;;;10.10;3.10;;;13.10;99.90;;;;;;4995838;28;20241;-67
2022/11/07 07:31:13;;;;;;;12.60;3.33;;;13.20;99.90;;;;;;4995326;28;20184;-68
2022/11/07 07:33:44;;;;;;;16.47;3.57;;;13.20;99.90;;;;;;4995865;28;20227;-68
2022/11/07 07:36:10;;;;;;;12.10;3.30;;;13.20;99.90;;;;;;4996209;28;20171;-69
2022/11/07 07:38:36;;;;;;;14.40;3.27;;;13.20;99.90;;;;;;4995691;28;20179;-69
2022/11/07 07:41:02;;;;;;;12.87;3.20;;;13.30;99.90;;;;;;4995651;28;20226;-68
2022/11/07 07:43:28;;;;;;;15.73;3.63;;;13.30;99.90;;;;;;4995737;28;20717;-69
2022/11/07 07:45:58;;;;;;;9.70;2.90;;;13.40;99.90;;;;;;4995241;28;20182;-67
2022/11/07 07:48:24;;;;;;;14.37;3.63;;;13.40;99.90;;;;;;4996348;28;20688;-68
2022/11/07 07:50:49;;;;;;;16.50;3.40;;;13.40;99.90;;;;;;4995692;28;20290;-69
2022/11/07 07:53:16;;;;;;;15.23;3.80;;;13.40;99.90;;;;;;4995773;28;20572;-68
2022/11/07 07:55:43;;;;;;;13.87;3.57;;;13.50;99.90;;;;;;4994626;28;20294;-68
2022/11/07 07:58:09;;;;;;;9.47;3.10;;;13.50;99.90;;;;;;4988053;28;20191;-68
2022/11/07 08:00:35;;;;;;;15.77;3.50;;;13.50;99.90;;;;;;4990962;28;20647;-68
2022/11/07 08:03:07;;;;;;;15.07;3.30;;;13.50;99.90;;;;;;4995475;28;20273;-68
2022/11/07 08:05:33;;;;;;;17.20;3.73;;;13.50;99.90;;;;;;4994383;28;20176;-69
2022/11/07 08:07:58;;;;;;;14.57;4.00;;;13.60;99.90;;;;;;4994879;28;20698;-68
2022/11/07 08:10:24;;;;;;;11.37;3.60;;;13.70;99.90;;;;;;4994533;28;20654;-68
2022/11/07 08:12:50;;;;;;;13.97;3.90;;;13.80;99.90;;;;;;4993754;28;20179;-68
2022/11/07 08:15:18;;;;;;;11.90;3.77;;;13.90;99.90;;;;;;4995100;28;20182;-68
2022/11/07 08:17:44;;;;;;;11.20;3.40;;;14.00;99.90;;;;;;4995121;28;20687;-69
2022/11/07 08:20:13;;;;;;;13.40;3.73;;;14.10;99.90;;;;;;4994687;28;20233;-68
2022/11/07 08:22:39;;;;;;;12.30;3.83;;;14.10;99.90;;;;;;4995557;28;20203;-67
2022/11/07 08:25:07;;;;;;;17.27;3.90;;;14.10;99.90;;;;;;4994814;28;20605;-69
2022/11/07 08:27:32;;;;;;;13.93;3.07;;;14.00;99.90;;;;;;4994444;28;20250;-67
2022/11/07 08:29:58;;;;;;;14.87;3.60;;;14.00;99.90;;;;;;4994001;28;20270;-68
2022/11/07 08:32:26;;;;;;;15.97;3.83;;;14.10;99.90;;;;;;4995088;28;20215;-68
2022/11/07 08:34:52;;;;;;;10.07;3.60;;;14.00;99.90;;;;;;4993611;28;20481;-68
2022/11/07 08:37:18;;;;;;;14.33;3.20;;;14.10;99.90;;;;;;4995510;28;20234;-69
2022/11/07 08:39:44;;;;;;;11.83;3.23;;;14.10;99.90;;;;;;4994309;28;20580;-68
2022/11/07 08:42:10;;;;;;;16.83;3.20;;;14.10;99.90;;;;;;4994268;28;20215;-68
2022/11/07 08:44:35;;;;;;;11.00;3.23;;;14.20;99.90;;;;;;4995242;28;20247;-68
2022/11/07 08:47:03;;;;;;;12.70;3.20;;;14.20;99.90;;;;;;4995052;28;20632;-68
2022/11/07 08:49:29;;;;;;;15.07;3.80;;;14.20;99.90;;;;;;4994358;28;20544;-69
2022/11/07 08:51:54;;;;;;;15.13;3.90;;;14.40;99.90;;;;;;4994537;28;20246;-69
2022/11/07 08:54:20;;;;;;;23.00;4.27;;;14.30;99.90;;;;;;4994329;28;20250;-68
2022/11/07 08:56:46;;;;;;;16.17;3.80;;;14.40;99.90;;;;;;4994187;28;20299;-68
2022/11/07 08:59:13;;;;;;;13.43;2.90;;;14.40;99.90;;;;;;4994526;28;20178;-68
2022/11/07 09:01:38;;;;;;;19.57;3.50;;;14.40;99.90;;;;;;4994574;28;20203;-68
2022/11/07 09:04:04;;;;;;;10.43;3.63;;;14.40;99.90;;;;;;4994059;28;20205;-68
2022/11/07 09:06:31;;;;;;;16.73;3.60;;;14.40;99.90;;;;;;4994489;28;20222;-68
2022/11/07 09:08:57;;;;;;;16.87;3.93;;;14.50;99.90;;;;;;4994289;28;20187;-69
2022/11/07 09:11:23;;;;;;;10.07;3.00;;;14.50;99.90;;;;;;4994430;28;20305;-67
2022/11/07 09:13:51;;;;;;;11.53;2.90;;;14.60;99.90;;;;;;4994479;28;20795;-68
2022/11/07 09:16:17;;;;;;;12.90;3.00;;;14.60;99.90;;;;;;4994661;28;20163;-68
2022/11/07 09:18:44;;;;;;;15.27;3.33;;;14.60;99.90;;;;;;4994713;28;20710;-69
2022/11/07 09:21:10;;;;;;;10.83;3.27;;;14.70;99.90;;;;;;4994176;28;20171;-69
2022/11/07 09:23:36;;;;;;;14.60;3.30;;;14.70;99.90;;;;;;4993998;28;20282;-69
2022/11/07 09:26:01;;;;;;;13.03;3.20;;;14.60;99.90;;;;;;4994432;28;20167;-67
2022/11/07 09:28:28;;;;;;;13.27;3.13;;;14.70;99.90;;;;;;4994228;28;20254;-68
2022/11/07 09:30:55;;;;;;;12.53;3.23;;;14.70;99.90;;;;;;4994124;28;20239;-68
2022/11/07 09:33:21;;;;;;;13.23;3.60;;;14.80;99.90;;;;;;4992403;28;20238;-68
2022/11/07 09:35:47;;;;;;;10.67;2.97;;;14.80;99.90;;;;;;4994287;28;20206;-68
2022/11/07 09:38:16;;;;;;;11.50;3.13;;;15.00;99.90;;;;;;4994220;28;20222;-69
2022/11/07 09:41:10;;;;;;;16.07;3.37;;;15.10;99.90;;;;;;4994209;28;20690;-68
2022/11/07 09:43:44;;;;;;;10.93;3.27;;;15.10;99.90;;;;;;4993679;28;20185;-69
2022/11/07 09:46:49;;;;;;;11.47;3.17;;;15.40;99.90;;;;;;4993602;28;20182;-69
2022/11/07 09:49:37;;;;;;;8.77;3.00;;;15.80;99.90;;;;;;4993488;28;20167;-69
2022/11/07 09:52:24;;;;;;;12.57;2.83;;;16.00;99.90;;;;;;4993626;28;20211;-70
2022/11/07 09:55:16;;;;;;;11.17;3.57;;;16.00;99.90;;;;;;4993485;28;20269;-69
2022/11/07 09:57:42;;;;;;;7.20;3.10;;;15.80;99.90;;;;;;4972442;28;20172;-68
2022/11/07 10:00:14;;;;;;;11.20;3.70;;;15.80;99.90;;;;;;4972103;28;20666;-68
2022/11/07 10:02:51;;;;;;;6.63;3.20;;;15.90;99.90;;;;;;4971958;28;20242;-68
2022/11/07 10:05:40;;;;;;;8.50;2.77;;;16.00;99.90;;;;;;4971593;28;20210;-68
2022/11/07 10:08:11;;;;;;;10.80;2.90;;;16.00;99.90;;;;;;4895073;29;20202;-68
2022/11/07 10:10:50;;;;;;;11.03;2.70;;;15.70;99.90;;;;;;4895824;29;20250;-69
2022/11/07 10:13:48;;;;;;;9.57;3.07;;;15.90;99.90;;;;;;4895106;29;20198;-69
2022/11/07 10:16:32;;;;;;;11.07;3.07;;;16.00;99.90;;;;;;4858337;29;20314;-68
2022/11/07 10:19:09;;;;;;;10.73;2.70;;;15.90;99.90;;;;;;4858121;29;20180;-68
2022/11/07 10:21:47;;;;;;;8.67;2.97;;;15.80;99.90;;;;;;4858057;29;20215;-68
2022/11/07 10:24:33;;;;;;;9.97;2.60;;;15.80;99.90;;;;;;4858219;29;20176;-68
2022/11/07 10:27:00;;;;;;;12.50;3.27;;;15.80;99.90;;;;;;4857985;29;20195;-69
2022/11/07 10:29:39;;;;;;;12.07;3.20;;;15.70;99.90;;;;;;4858683;29;20266;-69
2022/11/07 10:32:21;;;;;;;9.90;3.00;;;15.70;99.90;;;;;;4857769;29;20224;-68
2022/11/07 10:34:54;;;;;;;10.27;2.33;;;15.80;99.90;;;;;;4877576;29;20187;-69
2022/11/07 10:37:19;;;;;;;9.67;2.90;;;15.80;99.90;;;;;;4895279;29;20171;-69
2022/11/07 10:39:45;;;;;;;14.27;3.27;;;15.90;99.90;;;;;;4895398;29;20563;-68
2022/11/07 10:42:24;;;;;;;9.30;2.67;;;16.10;99.90;;;;;;4894910;29;20298;-67
2022/11/07 10:44:52;;;;;;;10.43;3.30;;;16.10;99.90;;;;;;4917369;29;20185;-69
2022/11/07 10:47:24;;;;;;;11.60;2.60;;;16.20;99.90;;;;;;4952111;29;20326;-69
2022/11/07 10:50:00;;;;;;;13.90;3.23;;;16.20;99.90;;;;;;4951648;29;20283;-67
2022/11/07 10:52:27;;;;;;;11.87;2.73;;;16.20;99.90;;;;;;4976930;28;20717;-69
2022/11/07 10:55:14;;;;;;;6.10;2.17;;;16.30;99.90;;;;;;4992731;28;20190;-68
2022/11/07 10:57:41;;;;;;;8.03;2.33;;;16.20;99.90;;;;;;4992569;28;20217;-68
2022/11/07 11:00:27;;;;;;;10.93;2.53;;;16.10;99.90;;;;;;4993227;28;20175;-67
2022/11/07 11:02:55;;;;;;;13.80;2.80;;;16.20;99.90;;;;;;4992394;28;20211;-67
2022/11/07 11:05:27;;;;;;;11.90;3.30;;;16.40;99.90;;;;;;4992473;28;20174;-69
2022/11/07 11:08:06;;;;;;;9.03;2.60;;;16.50;99.90;;;;;;4992512;28;20171;-68
2022/11/07 11:10:37;;;;;;;16.30;3.37;;;16.70;99.90;;;;;;4992539;28;20171;-69
2022/11/07 11:13:03;;;;;;;14.43;3.20;;;16.80;99.90;;;;;;4992336;28;20341;-69
2022/11/07 11:15:29;;;;;;;9.40;3.07;;;16.80;99.90;;;;;;4992772;28;20167;-69
2022/11/07 11:18:06;;;;;;;12.77;3.17;;;16.60;99.90;;;;;;4992012;28;20674;-68
2022/11/07 11:20:39;;;;;;;9.33;2.83;;;16.60;99.90;;;;;;4991077;28;20286;-68
2022/11/07 11:23:14;;;;;;;12.00;2.80;;;16.50;99.90;;;;;;4992233;28;20763;-69
2022/11/07 11:25:48;;;;;;;10.20;2.73;;;16.40;99.90;;;;;;4992618;28;20204;-68
2022/11/07 11:28:26;;;;;;;9.17;3.00;;;16.30;99.90;;;;;;4992538;28;20298;-69
2022/11/07 11:30:57;;;;;;;11.27;3.17;;;16.30;99.90;;;;;;4992836;28;20163;-69
2022/11/07 11:33:29;;;;;;;10.20;3.30;;;16.20;99.90;;;;;;4992016;28;20227;-68
2022/11/07 11:36:03;;;;;;;9.70;2.80;;;16.10;99.90;;;;;;4992244;28;20163;-68
2022/11/07 11:38:35;;;;;;;11.87;2.90;;;16.10;99.90;;;;;;4992428;28;20182;-68
2022/11/07 11:41:13;;;;;;;7.10;2.60;;;16.00;99.90;;;;;;4992583;28;20267;-69
2022/11/07 11:44:01;;;;;;;10.87;2.77;;;15.90;99.90;;;;;;4992842;28;20187;-68
2022/11/07 11:46:54;;;;;;;7.57;2.40;;;16.00;99.90;;;;;;4992020;28;20164;-68
2022/11/07 11:49:41;;;;;;;9.43;2.70;;;15.90;99.90;;;;;;4992487;28;20182;-67
2022/11/07 11:52:13;;;;;;;11.73;3.00;;;16.00;99.90;;;;;;4991611;28;20167;-67
2022/11/07 11:54:39;;;;;;;9.57;2.97;;;16.00;99.90;;;;;;4992357;28;20179;-68
2022/11/07 11:57:16;;;;;;;15.57;3.43;;;16.00;99.90;;;;;;4991912;28;20716;-68
2022/11/07 12:00:13;;;;;;;7.17;2.50;;;16.00;99.90;;;;;;4991829;28;20349;-70
2022/11/07 12:02:54;;;;;;;12.33;2.80;;;16.10;99.90;;;;;;4992143;28;20241;-69
2022/11/07 12:05:55;;;;;;;8.63;3.10;;;16.10;99.90;;;;;;4992191;28;20211;-68
2022/11/07 12:08:38;;;;;;;11.67;2.80;;;16.20;99.90;;;;;;4970435;28;20636;-69
2022/11/07 12:11:08;;;;;;;9.87;4.10;;;16.20;99.90;;;;;;4973026;28;20180;-68
2022/11/07 12:13:48;;;;;;;10.43;3.47;;;16.30;99.90;;;;;;4973539;28;20334;-68
2022/11/07 12:16:44;;;;;;;10.00;2.93;;;16.30;99.90;;;;;;4974065;28;20179;-68
2022/11/07 12:19:40;;;;;;;11.53;2.77;;;16.30;99.90;;;;;;4957417;28;20188;-69
2022/11/07 12:22:32;;;;;;;14.03;3.87;;;16.30;99.90;;;;;;4973285;28;20255;-68
2022/11/07 12:25:11;;;;;;;8.60;2.93;;;16.40;99.90;;;;;;4974063;28;20278;-69
2022/11/07 12:28:14;;;;;;;12.43;3.30;;;16.30;99.90;;;;;;4973795;28;20231;-68
2022/11/07 12:31:02;;;;;;;10.43;3.20;;;16.20;99.90;;;;;;4968746;28;20200;-68
2022/11/07 12:34:05;;;;;;;8.47;3.10;;;16.20;99.90;;;;;;4971877;28;20239;-69
2022/11/07 12:36:56;;;;;;;11.93;3.13;;;16.10;99.90;;;;;;4973939;28;20227;-69
2022/11/07 12:39:48;;;;;;;10.33;3.53;;;15.90;99.90;;;;;;4972918;28;20188;-69
2022/11/07 12:42:13;;;;;;;11.00;3.70;;;15.80;99.90;;;;;;4972435;28;20204;-69
2022/11/07 12:45:04;;;;;;;11.67;3.13;;;15.90;99.90;;;;;;4979956;28;20255;-69
2022/11/07 12:47:30;;;;;;;11.33;3.90;;;15.90;99.90;;;;;;4994423;28;20171;-68
2022/11/07 12:50:10;;;;;;;11.60;3.40;;;16.10;99.90;;;;;;4995017;28;20167;-68
2022/11/07 12:52:54;;;;;;;10.10;2.97;;;16.30;99.90;;;;;;4993723;28;20601;-68
2022/11/07 12:55:42;;;;;;;8.67;3.10;;;16.40;99.90;;;;;;4993398;28;20262;-69
2022/11/07 12:58:27;;;;;;;11.60;3.60;;;16.40;99.90;;;;;;4994608;28;20167;-68
2022/11/07 13:00:54;;;;;;;9.93;3.57;;;16.50;99.90;;;;;;4994868;28;20230;-69
2022/11/07 13:03:31;;;;;;;12.00;3.57;;;16.60;99.90;;;;;;4994562;28;20202;-68